createdAt,value
2023-01-03T00:01:43.319Z,4.70
2023-01-03T00:04:11.623Z,4.68
2023-01-03T00:06:43.061Z,4.66
2023-01-03T00:09:12.902Z,4.66
2023-01-03T00:11:59.944Z,4.64
2023-01-03T00:14:30.584Z,4.78
2023-01-03T00:16:59.996Z,4.75
2023-01-03T00:19:30.105Z,4.81
2023-01-03T00:21:57.700Z,4.95
2023-01-03T00:24:25.256Z,5.12
2023-01-03T00:26:53.147Z,5.07
2023-01-03T00:29:20.747Z,5.06
2023-01-03T00:31:48.363Z,5.06
2023-01-03T00:34:16.297Z,5.06
2023-01-03T00:36:43.932Z,5.05
2023-01-03T00:39:12.157Z,5.05
2023-01-03T00:41:41.242Z,5.29
2023-01-03T00:44:09.265Z,5.26
2023-01-03T00:46:37.066Z,5.32
2023-01-03T00:49:05.625Z,5.56
2023-01-03T00:51:35.951Z,5.66
2023-01-03T00:54:05.318Z,5.86
2023-01-03T00:56:36.578Z,5.96
2023-01-03T00:59:04.639Z,5.97
2023-01-03T01:01:47.168Z,6.22
2023-01-03T01:04:17.039Z,6.18
2023-01-03T01:06:50.121Z,6.41
2023-01-03T01:09:22.921Z,6.50
2023-01-03T01:11:50.972Z,6.59
2023-01-03T01:14:20.783Z,6.50
2023-01-03T01:16:52.400Z,6.62
2023-01-03T01:19:26.178Z,6.61
2023-01-03T01:21:54.924Z,6.49
2023-01-03T01:24:22.961Z,6.61
2023-01-03T01:26:50.743Z,6.72
2023-01-03T01:29:18.879Z,6.58
2023-01-03T01:31:47.563Z,6.63
2023-01-03T01:34:15.408Z,6.55
2023-01-03T01:36:44.452Z,6.53
2023-01-03T01:39:17.910Z,6.58
2023-01-03T01:42:05.240Z,6.57
2023-01-03T01:44:54.516Z,6.54
2023-01-03T01:47:36.121Z,6.52
2023-01-03T01:50:10.155Z,6.45
2023-01-03T01:52:46.566Z,6.41
2023-01-03T01:55:16.889Z,6.41
2023-01-03T01:57:44.846Z,6.36
2023-01-03T02:00:13.499Z,6.33
2023-01-03T02:02:45.697Z,6.29
2023-01-03T02:05:15.113Z,6.31
2023-01-03T02:07:43.600Z,6.47
2023-01-03T02:10:11.620Z,6.50
2023-01-03T02:13:03.644Z,6.40
2023-01-03T02:15:40.204Z,6.50
2023-01-03T02:18:52.682Z,6.57
2023-01-03T02:21:38.295Z,6.48
2023-01-03T02:24:17.942Z,6.46
2023-01-03T02:27:04.081Z,6.51
2023-01-03T02:30:10.734Z,6.46
2023-01-03T02:32:53.550Z,6.40
2023-01-03T02:35:32.286Z,6.32
2023-01-03T02:38:41.694Z,6.41
2023-01-03T02:41:39.698Z,6.32
2023-01-03T02:44:27.006Z,6.27
2023-01-03T02:46:59.248Z,6.17
2023-01-03T02:49:31.009Z,6.13
2023-01-03T02:52:04.482Z,6.18
2023-01-03T02:54:39.024Z,6.17
2023-01-03T02:57:10.637Z,6.18
2023-01-03T02:59:44.644Z,6.11
2023-01-03T03:02:14.170Z,6.12
2023-01-03T03:04:42.833Z,6.16
2023-01-03T03:07:18.524Z,6.11
2023-01-03T03:10:11.524Z,6.22
2023-01-03T03:12:59.093Z,6.15
2023-01-03T03:15:32.731Z,6.08
2023-01-03T03:18:08.643Z,6.08
2023-01-03T03:20:55.066Z,6.11
2023-01-03T03:23:44.804Z,6.09
2023-01-03T03:26:18.850Z,6.09
2023-01-03T03:28:51.080Z,6.10
2023-01-03T03:31:23.679Z,6.16
2023-01-03T03:33:57.808Z,6.09
2023-01-03T03:36:25.554Z,6.07
2023-01-03T03:38:53.361Z,6.02
2023-01-03T03:42:02.116Z,6.08
2023-01-03T03:45:02.186Z,6.15
2023-01-03T03:47:56.135Z,6.12
2023-01-03T03:50:33.006Z,6.09
2023-01-03T03:53:03.968Z,6.08
2023-01-03T03:55:42.064Z,6.04
2023-01-03T03:58:15.594Z,6.18
2023-01-03T04:00:44.204Z,6.11
2023-01-03T04:03:12.880Z,6.09
2023-01-03T04:05:45.525Z,6.00
2023-01-03T04:08:13.408Z,5.99
2023-01-03T04:10:43.090Z,5.97
2023-01-03T04:13:10.585Z,5.92
2023-01-03T04:15:38.413Z,5.81
2023-01-03T04:18:06.015Z,5.88
2023-01-03T04:20:34.554Z,5.91
2023-01-03T04:23:02.377Z,5.85
2023-01-03T04:25:29.920Z,6.01
2023-01-03T04:27:57.527Z,6.01
2023-01-03T04:30:25.684Z,5.95
2023-01-03T04:32:53.284Z,5.87
2023-01-03T04:35:21.006Z,5.88
2023-01-03T04:37:49.314Z,5.93
2023-01-03T04:40:17.578Z,5.86
2023-01-03T04:43:03.825Z,5.86
2023-01-03T04:45:31.701Z,5.91
2023-01-03T04:48:01.553Z,5.80
2023-01-03T04:50:30.177Z,5.75
2023-01-03T04:52:58.359Z,5.75
2023-01-03T04:55:26.100Z,5.70
2023-01-03T04:57:54.021Z,5.73
2023-01-03T05:00:22.052Z,5.70
2023-01-03T05:02:49.572Z,5.66
2023-01-03T05:05:17.209Z,5.64
2023-01-03T05:07:45.290Z,5.65
2023-01-03T05:10:13.461Z,5.63
2023-01-03T05:12:41.588Z,5.63
2023-01-03T05:15:09.739Z,5.57
2023-01-03T05:17:37.439Z,5.54
2023-01-03T05:20:25.745Z,5.46
2023-01-03T05:23:12.424Z,5.40
2023-01-03T05:25:52.345Z,5.35
2023-01-03T05:28:22.116Z,5.31
2023-01-03T05:30:49.969Z,5.23
2023-01-03T05:33:17.750Z,5.31
2023-01-03T05:35:47.517Z,5.30
2023-01-03T05:38:15.478Z,5.25
2023-01-03T05:40:43.705Z,5.21
2023-01-03T05:43:11.990Z,5.24
2023-01-03T05:45:39.856Z,5.31
2023-01-03T05:48:08.690Z,5.28
2023-01-03T05:50:36.568Z,5.48
2023-01-03T05:53:04.724Z,5.39
2023-01-03T05:55:32.253Z,5.25
2023-01-03T05:58:00.117Z,5.34
2023-01-03T06:00:27.641Z,5.36
2023-01-03T06:02:56.113Z,5.33
2023-01-03T06:05:23.796Z,5.30
2023-01-03T06:07:51.368Z,5.31
2023-01-03T06:10:21.378Z,5.26
2023-01-03T06:12:49.970Z,5.26
2023-01-03T06:15:17.421Z,5.28
2023-01-03T06:17:57.997Z,5.26
2023-01-03T06:20:27.191Z,5.25
2023-01-03T06:22:55.841Z,5.18
2023-01-03T06:25:23.361Z,5.15
2023-01-03T06:27:51.004Z,5.06
2023-01-03T06:30:19.049Z,5.04
2023-01-03T06:32:46.704Z,5.02
2023-01-03T06:35:14.342Z,4.99
2023-01-03T06:37:42.246Z,4.96
2023-01-03T06:40:10.311Z,4.93
2023-01-03T06:42:44.800Z,4.91
2023-01-03T06:45:33.085Z,4.88
2023-01-03T06:48:23.860Z,4.88
2023-01-03T06:51:10.379Z,4.84
2023-01-03T06:53:39.886Z,4.77
2023-01-03T06:56:08.450Z,4.82
2023-01-03T06:58:36.423Z,4.73
2023-01-03T07:01:05.220Z,4.62
2023-01-03T07:03:34.005Z,4.41
2023-01-03T07:06:02.126Z,4.46
2023-01-03T07:08:29.616Z,4.41
2023-01-03T07:11:00.125Z,4.31
2023-01-03T07:13:46.234Z,4.25
2023-01-03T07:16:18.908Z,4.25
2023-01-03T07:18:54.733Z,4.25
2023-01-03T07:21:29.126Z,4.17
2023-01-03T07:24:01.943Z,4.23
2023-01-03T07:26:31.162Z,4.32
2023-01-03T07:28:58.896Z,4.25
2023-01-03T07:31:26.871Z,4.03
2023-01-03T07:33:54.828Z,3.88
2023-01-03T07:36:22.531Z,3.80
2023-01-03T07:38:50.255Z,3.73
2023-01-03T07:41:18.559Z,3.63
2023-01-03T07:43:48.196Z,3.62
2023-01-03T07:46:19.693Z,3.69
2023-01-03T07:48:50.128Z,3.78
2023-01-03T07:51:21.240Z,3.68
2023-01-03T07:53:51.206Z,3.77
2023-01-03T07:56:20.877Z,3.83
2023-01-03T07:58:49.396Z,3.88
2023-01-03T08:01:19.372Z,3.86
2023-01-03T08:03:47.554Z,3.97
2023-01-03T08:06:17.553Z,3.97
2023-01-03T08:08:45.567Z,4.09
2023-01-03T08:11:33.065Z,3.74
2023-01-03T08:14:00.637Z,3.67
2023-01-03T08:16:28.566Z,3.80
2023-01-03T08:18:56.365Z,3.76
2023-01-03T08:21:23.990Z,3.82
2023-01-03T08:23:51.889Z,3.58
2023-01-03T08:26:19.487Z,3.63
2023-01-03T08:28:46.994Z,3.73
2023-01-03T08:31:26.060Z,3.78
2023-01-03T08:33:57.421Z,3.74
2023-01-03T08:36:27.616Z,3.86
2023-01-03T08:39:03.235Z,3.55
2023-01-03T08:41:38.770Z,3.46
2023-01-03T08:44:07.220Z,3.43
2023-01-03T08:46:35.524Z,3.28
2023-01-03T08:49:03.464Z,3.31
2023-01-03T08:51:31.212Z,3.29
2023-01-03T08:53:59.080Z,3.19
2023-01-03T08:56:26.773Z,3.21
2023-01-03T08:58:57.800Z,3.12
2023-01-03T09:01:26.535Z,3.17
2023-01-03T09:03:54.672Z,3.13
2023-01-03T09:06:22.437Z,3.15
2023-01-03T09:08:50.358Z,3.27
2023-01-03T09:11:18.259Z,3.43
2023-01-03T09:13:45.904Z,3.58
2023-01-03T09:16:16.594Z,3.40
2023-01-03T09:18:44.202Z,3.03
2023-01-03T09:21:11.872Z,3.16
2023-01-03T09:23:40.131Z,2.89
2023-01-03T09:26:08.207Z,3.12
2023-01-03T09:28:35.887Z,3.11
2023-01-03T09:31:04.848Z,3.10
2023-01-03T09:33:32.622Z,3.21
2023-01-03T09:36:00.367Z,3.21
2023-01-03T09:38:28.377Z,3.27
2023-01-03T09:41:00.426Z,3.12
2023-01-03T09:43:41.080Z,3.02
2023-01-03T09:46:16.483Z,3.07
2023-01-03T09:48:44.822Z,3.21
2023-01-03T09:51:48.005Z,3.09
2023-01-03T09:54:44.748Z,3.26
2023-01-03T09:57:36.776Z,3.37
2023-01-03T10:00:33.518Z,3.32
2023-01-03T10:03:38.483Z,3.45
2023-01-03T10:06:11.932Z,3.46
2023-01-03T10:09:02.918Z,3.44
2023-01-03T10:11:58.341Z,3.54
2023-01-03T10:15:05.630Z,3.47
2023-01-03T10:17:51.717Z,3.49
2023-01-03T10:20:34.190Z,3.48
2023-01-03T10:23:05.926Z,3.48
2023-01-03T10:25:33.931Z,3.57
2023-01-03T10:28:06.997Z,3.51
2023-01-03T10:31:03.710Z,3.69
2023-01-03T10:33:47.277Z,3.60
2023-01-03T10:36:17.137Z,3.71
2023-01-03T10:38:51.987Z,3.65
2023-01-03T10:41:29.134Z,3.80
2023-01-03T10:43:59.163Z,3.93
2023-01-03T10:46:31.130Z,4.03
2023-01-03T10:49:27.943Z,4.12
2023-01-03T10:52:12.712Z,4.10
2023-01-03T10:54:54.854Z,4.06
2023-01-03T10:57:57.213Z,4.14
2023-01-03T11:00:34.647Z,4.20
2023-01-03T11:03:14.007Z,4.29
2023-01-03T11:05:43.647Z,4.21
2023-01-03T11:08:34.959Z,4.30
2023-01-03T11:11:02.537Z,4.37
2023-01-03T11:13:42.429Z,4.44
2023-01-03T11:16:15.771Z,4.44
2023-01-03T11:18:44.565Z,4.48
2023-01-03T11:22:02.691Z,4.42
2023-01-03T11:25:06.869Z,4.58
2023-01-03T11:27:55.788Z,4.68
2023-01-03T11:30:35.980Z,4.69
2023-01-03T11:33:22.757Z,4.75
2023-01-03T11:36:20.948Z,4.75
2023-01-03T11:39:22.836Z,4.80
2023-01-03T11:42:13.038Z,4.86
2023-01-03T11:44:43.310Z,4.88
2023-01-03T11:47:39.790Z,4.97
2023-01-03T11:50:24.845Z,4.85
2023-01-03T11:53:16.035Z,4.89
2023-01-03T11:55:53.923Z,4.92
2023-01-03T11:58:30.884Z,4.99
2023-01-03T12:01:07.695Z,5.05
2023-01-03T12:04:08.741Z,5.02
2023-01-03T12:07:37.078Z,5.07
2023-01-03T12:10:11.335Z,5.10
2023-01-03T12:13:16.342Z,5.16
2023-01-03T12:16:02.602Z,5.23
2023-01-03T12:18:42.458Z,5.28
2023-01-03T12:21:25.403Z,5.37
2023-01-03T12:24:01.623Z,5.37
2023-01-03T12:26:30.073Z,5.36
2023-01-03T12:29:04.882Z,5.40
2023-01-03T12:31:34.756Z,5.46
2023-01-03T12:34:12.260Z,5.52
2023-01-03T12:37:12.062Z,5.60
2023-01-03T12:39:49.664Z,5.55
2023-01-03T12:42:27.605Z,5.59
2023-01-03T12:45:13.744Z,5.63
2023-01-03T12:47:57.995Z,5.62
2023-01-03T12:50:33.766Z,5.75
2023-01-03T12:53:23.430Z,5.72
2023-01-03T12:56:09.285Z,5.79
2023-01-03T12:58:56.058Z,5.79
2023-01-03T13:01:29.080Z,5.79
2023-01-03T13:04:02.722Z,5.85
2023-01-03T13:06:33.590Z,5.86
2023-01-03T13:09:08.270Z,5.90
2023-01-03T13:11:41.825Z,5.94
2023-01-03T13:14:27.158Z,6.01
2023-01-03T13:17:15.667Z,5.97
2023-01-03T13:19:59.172Z,6.03
2023-01-03T13:22:50.801Z,6.08
2023-01-03T13:25:40.029Z,6.14
2023-01-03T13:28:29.819Z,6.17
2023-01-03T13:31:19.018Z,6.18
2023-01-03T13:33:57.800Z,6.15
2023-01-03T13:36:26.563Z,6.19
2023-01-03T13:38:56.595Z,6.16
2023-01-03T13:41:36.891Z,6.22
2023-01-03T13:44:20.055Z,6.23
2023-01-03T13:46:48.343Z,6.28
2023-01-03T13:49:24.307Z,6.33
2023-01-03T13:51:53.987Z,6.36
2023-01-03T13:54:21.715Z,6.38
2023-01-03T13:56:49.218Z,6.41
2023-01-03T13:59:34.852Z,6.42
2023-01-03T14:02:12.237Z,6.48
2023-01-03T14:04:59.758Z,6.51
2023-01-03T14:07:51.351Z,6.54
2023-01-03T14:10:39.075Z,6.55
2023-01-03T14:13:25.585Z,6.52
2023-01-03T14:16:41.717Z,6.56
2023-01-03T14:19:12.333Z,6.55
2023-01-03T14:22:26.747Z,6.59
2023-01-03T14:24:57.119Z,6.62
2023-01-03T14:27:35.650Z,6.64
2023-01-03T14:30:04.374Z,6.64
2023-01-03T14:32:37.544Z,6.66
2023-01-03T14:35:05.579Z,6.71
2023-01-03T14:37:35.137Z,6.68
2023-01-03T14:40:06.247Z,6.75
2023-01-03T14:42:34.363Z,6.76
2023-01-03T14:45:06.819Z,6.78
2023-01-03T14:47:38.564Z,6.75
2023-01-03T14:50:14.392Z,6.78
2023-01-03T14:52:45.781Z,6.79
2023-01-03T14:55:19.027Z,6.78
2023-01-03T14:57:48.479Z,6.82
2023-01-03T15:00:28.142Z,6.86
2023-01-03T15:03:01.650Z,6.86
2023-01-03T15:05:32.544Z,6.88
2023-01-03T15:08:21.713Z,6.89
2023-01-03T15:11:04.294Z,6.88
2023-01-03T15:13:50.424Z,6.90
2023-01-03T15:16:40.140Z,6.92
2023-01-03T15:19:17.761Z,6.95
2023-01-03T15:21:46.313Z,6.94
2023-01-03T15:24:17.306Z,6.91
2023-01-03T15:26:47.576Z,6.97
2023-01-03T15:29:23.916Z,6.97
2023-01-03T15:31:54.601Z,6.99
2023-01-03T15:34:37.311Z,6.99
2023-01-03T15:37:20.270Z,7.00
2023-01-03T15:39:53.553Z,7.01
2023-01-03T15:42:45.997Z,7.04
2023-01-03T15:45:29.527Z,7.04
2023-01-03T15:47:59.856Z,7.04
2023-01-03T15:50:48.043Z,7.04
2023-01-03T15:53:26.887Z,7.05
2023-01-03T15:56:06.564Z,7.06
2023-01-03T15:58:36.029Z,7.07
2023-01-03T16:01:04.561Z,7.08
2023-01-03T16:03:35.153Z,7.07
2023-01-03T16:06:03.063Z,7.12
2023-01-03T16:08:36.155Z,7.15
2023-01-03T16:11:07.102Z,7.16
2023-01-03T16:13:37.777Z,7.16
2023-01-03T16:16:06.947Z,7.12
2023-01-03T16:18:49.092Z,7.11
2023-01-03T16:21:17.674Z,7.16
2023-01-03T16:23:45.627Z,7.16
2023-01-03T16:26:14.010Z,7.15
2023-01-03T16:28:42.108Z,7.12
2023-01-03T16:31:19.520Z,7.12
2023-01-03T16:33:51.512Z,7.11
2023-01-03T16:36:25.098Z,7.11
2023-01-03T16:38:53.050Z,7.10
2023-01-03T16:41:20.719Z,7.08
2023-01-03T16:43:48.364Z,7.03
2023-01-03T16:46:20.219Z,6.99
2023-01-03T16:48:52.837Z,7.02
2023-01-03T16:51:26.908Z,7.01
2023-01-03T16:53:56.464Z,6.94
2023-01-03T16:56:24.988Z,6.98
2023-01-03T16:58:53.205Z,6.95
2023-01-03T17:01:21.211Z,6.88
2023-01-03T17:03:49.159Z,6.96
2023-01-03T17:06:35.300Z,6.93
2023-01-03T17:09:32.055Z,6.89
2023-01-03T17:11:59.771Z,6.90
2023-01-03T17:14:27.796Z,6.92
2023-01-03T17:16:59.899Z,6.87
2023-01-03T17:20:02.818Z,6.88
2023-01-03T17:22:20.579Z,6.84
2023-01-03T17:24:48.864Z,6.90
2023-01-03T17:27:19.059Z,6.90
2023-01-03T17:29:50.300Z,6.89
2023-01-03T17:32:20.731Z,6.93
2023-01-03T17:34:48.457Z,6.92
2023-01-03T17:37:19.029Z,6.86
2023-01-03T17:39:56.191Z,6.90
2023-01-03T17:42:24.730Z,6.87
2023-01-03T17:45:11.601Z,6.91
2023-01-03T17:48:00.171Z,6.90
2023-01-03T17:50:32.415Z,6.88
2023-01-03T17:53:01.120Z,6.92
2023-01-03T17:55:30.737Z,6.94
2023-01-03T17:58:01.938Z,6.87
2023-01-03T18:00:31.894Z,6.84
2023-01-03T18:03:02.899Z,6.84
2023-01-03T18:05:31.073Z,6.84
2023-01-03T18:08:01.272Z,6.72
2023-01-03T18:10:41.792Z,6.75
2023-01-03T18:13:23.622Z,6.77
2023-01-03T18:15:51.812Z,6.79
2023-01-03T18:18:21.121Z,6.74
2023-01-03T18:20:49.355Z,6.72
2023-01-03T18:23:36.649Z,6.73
2023-01-03T18:26:07.013Z,6.74
2023-01-03T18:28:34.928Z,6.74
2023-01-03T18:31:02.769Z,6.69
2023-01-03T18:33:30.606Z,6.63
2023-01-03T18:35:58.833Z,6.65
2023-01-03T18:38:31.989Z,6.63
2023-01-03T18:41:05.104Z,6.62
2023-01-03T18:43:33.902Z,6.54
2023-01-03T18:46:01.858Z,6.56
2023-01-03T18:48:29.538Z,6.52
2023-01-03T18:50:59.420Z,6.46
2023-01-03T18:53:31.261Z,6.54
2023-01-03T18:55:59.945Z,6.54
2023-01-03T18:58:32.073Z,6.41
2023-01-03T19:01:00.172Z,6.51
2023-01-03T19:03:30.166Z,6.50
2023-01-03T19:05:59.488Z,6.53
2023-01-03T19:08:30.660Z,6.46
2023-01-03T19:11:04.656Z,6.46
2023-01-03T19:13:50.386Z,6.46
2023-01-03T19:16:21.718Z,6.43
2023-01-03T19:18:50.025Z,6.41
2023-01-03T19:21:19.059Z,6.41
2023-01-03T19:23:54.467Z,6.41
2023-01-03T19:26:38.349Z,6.31
2023-01-03T19:29:07.624Z,6.35
2023-01-03T19:31:41.911Z,6.41
2023-01-03T19:34:17.907Z,6.38
2023-01-03T19:36:46.973Z,6.22
2023-01-03T19:39:15.345Z,6.16
2023-01-03T19:42:06.626Z,6.16
2023-01-03T19:44:35.131Z,6.16
2023-01-03T19:47:03.590Z,6.10
2023-01-03T19:49:31.959Z,6.10
2023-01-03T19:51:59.813Z,6.16
2023-01-03T19:54:27.494Z,6.26
2023-01-03T19:56:58.846Z,6.31
2023-01-03T19:59:31.973Z,6.38
2023-01-03T20:04:48.439Z,6.41
2023-01-03T20:07:16.405Z,6.34
2023-01-03T20:09:45.025Z,6.37
2023-01-03T20:12:15.071Z,6.35
2023-01-03T20:14:47.462Z,6.37
2023-01-03T20:17:26.281Z,6.38
2023-01-03T20:19:56.576Z,6.35
2023-01-03T20:23:02.690Z,6.39
2023-01-03T20:25:27.738Z,6.40
2023-01-03T20:27:56.962Z,6.47
2023-01-03T20:30:27.178Z,6.49
2023-01-03T20:32:55.511Z,6.38
2023-01-03T20:38:13.057Z,6.40
2023-01-03T20:40:41.529Z,6.36
2023-01-03T20:43:13.578Z,6.34
2023-01-03T20:45:41.829Z,6.34
2023-01-03T20:48:19.287Z,6.30
2023-01-03T20:50:50.992Z,6.30
2023-01-03T20:53:20.804Z,6.27
2023-01-03T20:55:49.368Z,6.23
2023-01-03T20:58:21.913Z,6.22
2023-01-03T21:00:49.811Z,6.13
2023-01-03T21:03:17.899Z,6.05
2023-01-03T21:05:45.606Z,6.06
2023-01-03T21:08:34.960Z,6.03
2023-01-03T21:11:03.009Z,5.99
2023-01-03T21:13:30.642Z,5.95
2023-01-03T21:15:58.234Z,5.91
2023-01-03T21:18:26.137Z,5.93
2023-01-03T21:20:53.900Z,5.88
2023-01-03T21:23:23.238Z,5.90
2023-01-03T21:25:51.068Z,5.90
2023-01-03T21:28:19.271Z,5.85
2023-01-03T21:30:48.399Z,5.80
2023-01-03T21:33:19.181Z,5.87
2023-01-03T21:35:46.969Z,5.80
2023-01-03T21:38:14.603Z,5.75
2023-01-03T21:40:48.628Z,5.64
2023-01-03T21:43:16.662Z,5.75
2023-01-03T21:45:47.239Z,5.73
2023-01-03T21:48:17.291Z,5.75
2023-01-03T21:50:49.813Z,5.73
2023-01-03T21:53:22.599Z,5.67
2023-01-03T21:55:50.525Z,5.74
2023-01-03T21:58:19.656Z,5.70
2023-01-03T22:00:47.765Z,5.68
2023-01-03T22:03:35.817Z,5.64
2023-01-03T22:06:06.429Z,5.69
2023-01-03T22:08:34.691Z,5.66
2023-01-03T22:11:03.389Z,5.62
2023-01-03T22:13:31.767Z,5.66
2023-01-03T22:16:05.145Z,5.68
2023-01-03T22:18:33.362Z,5.68
2023-01-03T22:21:10.805Z,5.75
2023-01-03T22:23:39.968Z,5.77
2023-01-03T22:26:12.648Z,5.72
2023-01-03T22:28:42.651Z,5.72
2023-01-03T22:31:16.226Z,5.71
2023-01-03T22:33:44.854Z,5.71
2023-01-03T22:36:13.289Z,5.69
2023-01-03T22:38:44.321Z,5.69
2023-01-03T22:41:16.950Z,5.67
2023-01-03T22:43:45.332Z,5.65
2023-01-03T22:46:17.441Z,5.64
2023-01-03T22:48:45.185Z,5.61
2023-01-03T22:51:14.823Z,5.67
2023-01-03T22:53:44.392Z,5.60
2023-01-03T22:56:15.250Z,5.72
2023-01-03T22:58:44.728Z,5.75
2023-01-03T23:01:18.176Z,5.78
2023-01-03T23:03:47.305Z,5.75
2023-01-03T23:06:17.631Z,5.77
2023-01-03T23:08:47.469Z,5.78
2023-01-03T23:11:35.581Z,5.82
2023-01-03T23:14:07.550Z,5.80
2023-01-03T23:16:35.647Z,5.81
2023-01-03T23:19:05.992Z,5.79
2023-01-03T23:21:34.170Z,5.80
2023-01-03T23:24:02.365Z,5.85
2023-01-03T23:26:30.063Z,5.82
2023-01-03T23:28:59.487Z,5.78
2023-01-03T23:31:27.836Z,5.83
2023-01-03T23:33:59.100Z,5.85
2023-01-03T23:36:27.903Z,5.85
2023-01-03T23:38:55.866Z,5.82
2023-01-03T23:41:23.629Z,5.82
2023-01-03T23:43:51.933Z,5.90
2023-01-03T23:46:21.864Z,5.92
2023-01-03T23:48:57.414Z,5.89
2023-01-03T23:51:26.196Z,5.93
2023-01-03T23:53:54.314Z,5.95
2023-01-03T23:56:24.398Z,5.98
2023-01-03T23:58:52.915Z,5.93
